Haci Arif Kaptan — TCQQ — position and weather

sailwx.info

Track history (hours):
 
Tides and Currents Weather Stations Pressure Air Temp Water Temp Dewpoint Dewpoint Depression Visibility Wind Speed Wind Dir Waves Ship Positions

Haci Arif Kaptan

Last reported at 2014-Nov-01 08:19 UTC. Time now 2014-Nov-01 09:07 UTC.
Position N 41°22' E 029°40'.

Length 130 m; draft 4.2 m.

Type: Cargo ship. MMSI: 271000494.

Date/timePositionNaut miles runAvg speedWind from/ knotsBaromVisibWave heightAir tempDewpointWater temp
2014-Nov-01 08:19N 41°22' E 029°40'5 6.3
2014-Nov-01 07:33N 41°21' E 029°34'6 5.7
2014-Nov-01 06:33N 41°19' E 029°27'5 5.3
2014-Nov-01 05:33N 41°17' E 029°20'5 5.4
2014-Nov-01 04:33N 41°15' E 029°13'19 4.8
2014-Nov-01 00:34N 40°59' E 028°60'6 5.5
2014-Oct-31 23:32N 40°54' E 028°56'5 4.8
2014-Oct-31 22:30N 40°59' E 028°56'1 0.3
2014-Oct-31 20:31N 40°59' E 028°56'0 0.0
2014-Oct-31 19:31N 40°59' E 028°56'0 0.0
2014-Oct-31 18:19N 40°59' E 028°56'0 0.0
2014-Oct-31 17:25N 40°59' E 028°56'0 0.0
2014-Oct-31 16:19N 40°59' E 028°56'0 0.0
2014-Oct-31 15:07N 40°59' E 028°56'0 0.0
2014-Oct-31 14:19N 40°59' E 028°56'0 0.0
2014-Oct-31 13:19N 40°59' E 028°56'0 0.0
2014-Oct-31 12:07N 40°59' E 028°56'0 0.0
2014-Oct-31 11:31N 40°59' E 028°56'0 0.0
2014-Oct-31 10:19N 40°59' E 028°56'0 0.0
2014-Oct-31 09:13N 40°59' E 028°56'0 0.0
2014-Oct-31 06:31N 40°59' E 028°56'0 0.0
2014-Oct-31 05:31N 40°59' E 028°56'0 0.0
2014-Oct-31 04:31N 40°59' E 028°56'0 0.0
2014-Oct-31 03:19N 40°59' E 028°56'0 0.0
2014-Oct-31 02:31N 40°59' E 028°56'0 0.1
2014-Oct-31 01:07N 40°59' E 028°56'0 0.0
2014-Oct-31 00:25N 40°59' E 028°56'0 0.0
2014-Oct-30 22:31N 40°59' E 028°56'0 0.0
2014-Oct-30 21:31N 40°59' E 028°56'0 0.0
2014-Oct-30 20:25N 40°59' E 028°56'0 0.0
2014-Oct-30 19:13N 40°59' E 028°56'0 0.0
2014-Oct-30 18:25N 40°59' E 028°56'0 0.0
2014-Oct-30 17:31N 40°59' E 028°56'0 0.0
2014-Oct-30 16:31N 40°59' E 028°56'0 0.0
2014-Oct-30 15:19N 40°59' E 028°56'0 0.0
2014-Oct-30 14:31N 40°59' E 028°56'0 0.0
2014-Oct-30 08:25N 40°59' E 028°56'0 0.0
2014-Oct-30 06:19N 40°59' E 028°56'0 0.0
2014-Oct-30 05:31N 40°59' E 028°56'0 0.0
2014-Oct-30 04:25N 40°59' E 028°56'0 0.0
2014-Oct-30 03:31N 40°59' E 028°56'0 0.0
2014-Oct-30 02:25N 40°59' E 028°56'0 0.0
2014-Oct-30 01:25N 40°59' E 028°56'0 0.0
2014-Oct-30 00:19N 40°59' E 028°56'0 0.0
2014-Oct-29 23:31N 40°59' E 028°56'0 0.0
2014-Oct-29 22:31N 40°59' E 028°56'0 0.0
2014-Oct-29 21:31N 40°59' E 028°56'0 0.0
2014-Oct-29 20:25N 40°59' E 028°56'0 0.0
2014-Oct-29 19:25N 40°59' E 028°56'0 0.0
2014-Oct-29 18:19N 40°59' E 028°56'0 0.0
2014-Oct-29 17:07N 40°59' E 028°56'0 0.0
2014-Oct-29 16:07N 40°59' E 028°56'0 0.0
2014-Oct-29 15:31N 40°59' E 028°56'0 0.1
2014-Oct-29 14:31N 40°59' E 028°56'3 2.8
2014-Oct-29 13:31N 40°56' E 028°57'6 5.7
2014-Oct-29 12:28N 40°51' E 028°52'7 7.7
2014-Oct-29 11:31N 40°50' E 028°43'101 5.6
2014-Oct-28 17:21N 40°18' E 026°36'31 2.9
2014-Oct-28 06:31N 40°26' E 025°57'8 8.3
2014-Oct-28 05:33N 40°34' E 025°54'9 8.7
2014-Oct-28 04:33N 40°42' E 025°52'7 7.2
2014-Oct-28 03:33N 40°47' E 025°45'9 8.0
2014-Oct-28 02:29N 40°48' E 025°33'7 7.8
2014-Oct-28 01:33N 40°49' E 025°24'7 7.0
2014-Oct-28 00:33N 40°49' E 025°15'7 6.9
2014-Oct-27 23:33N 40°48' E 025°06'7 7.2
2014-Oct-27 22:33N 40°43' E 024°59'6 6.3
2014-Oct-27 21:33N 40°38' E 024°54'6 5.3
2014-Oct-27 20:21N 40°33' E 024°49'4 5.3
2014-Oct-27 19:33N 40°29' E 024°46'5 5.3
2014-Oct-27 18:33N 40°25' E 024°42'5 5.4
2014-Oct-27 17:33N 40°20' E 024°38'6 5.7
2014-Oct-27 16:30N 40°15' E 024°33'6 5.3
2014-Oct-27 15:23N 40°10' E 024°29'14 4.4
2014-Oct-27 12:10N 40°02' E 024°15'3 4.3
2014-Oct-27 11:33N 40°00' E 024°12'4 4.5
2014-Oct-27 10:33N 39°58' E 024°07'5 4.5
2014-Oct-27 09:32N 39°55' E 024°02'12 5.6
2014-Oct-27 07:28N 39°54' E 023°47'  
Track history (hours):
 
Tides and Currents Weather Stations Pressure Air Temp Water Temp Dewpoint Dewpoint Depression Visibility Wind Speed Wind Dir Waves Ship Positions

Haci Arif Kaptan

Last reported at 2014-Nov-01 08:19 UTC. Time now 2014-Nov-01 09:07 UTC.
Position N 41°22' E 029°40'.

Length 130 m; draft 4.2 m.

Type: Cargo ship. MMSI: 271000494.

Date/timePositionNaut miles runAvg speedWind from/ knotsBaromVisibWave heightAir tempDewpointWater temp
2014-Nov-01 08:19N 41°22' E 029°40'5 6.3
2014-Nov-01 07:33N 41°21' E 029°34'6 5.7
2014-Nov-01 06:33N 41°19' E 029°27'5 5.3
2014-Nov-01 05:33N 41°17' E 029°20'5 5.4
2014-Nov-01 04:33N 41°15' E 029°13'19 4.8
2014-Nov-01 00:34N 40°59' E 028°60'6 5.5
2014-Oct-31 23:32N 40°54' E 028°56'5 4.8
2014-Oct-31 22:30N 40°59' E 028°56'1 0.3
2014-Oct-31 20:31N 40°59' E 028°56'0 0.0
2014-Oct-31 19:31N 40°59' E 028°56'0 0.0
2014-Oct-31 18:19N 40°59' E 028°56'0 0.0
2014-Oct-31 17:25N 40°59' E 028°56'0 0.0
2014-Oct-31 16:19N 40°59' E 028°56'0 0.0
2014-Oct-31 15:07N 40°59' E 028°56'0 0.0
2014-Oct-31 14:19N 40°59' E 028°56'0 0.0
2014-Oct-31 13:19N 40°59' E 028°56'0 0.0
2014-Oct-31 12:07N 40°59' E 028°56'0 0.0
2014-Oct-31 11:31N 40°59' E 028°56'0 0.0
2014-Oct-31 10:19N 40°59' E 028°56'0 0.0
2014-Oct-31 09:13N 40°59' E 028°56'0 0.0
2014-Oct-31 06:31N 40°59' E 028°56'0 0.0
2014-Oct-31 05:31N 40°59' E 028°56'0 0.0
2014-Oct-31 04:31N 40°59' E 028°56'0 0.0
2014-Oct-31 03:19N 40°59' E 028°56'0 0.0
2014-Oct-31 02:31N 40°59' E 028°56'0 0.1
2014-Oct-31 01:07N 40°59' E 028°56'0 0.0
2014-Oct-31 00:25N 40°59' E 028°56'0 0.0
2014-Oct-30 22:31N 40°59' E 028°56'0 0.0
2014-Oct-30 21:31N 40°59' E 028°56'0 0.0
2014-Oct-30 20:25N 40°59' E 028°56'0 0.0
2014-Oct-30 19:13N 40°59' E 028°56'0 0.0
2014-Oct-30 18:25N 40°59' E 028°56'0 0.0
2014-Oct-30 17:31N 40°59' E 028°56'0 0.0
2014-Oct-30 16:31N 40°59' E 028°56'0 0.0
2014-Oct-30 15:19N 40°59' E 028°56'0 0.0
2014-Oct-30 14:31N 40°59' E 028°56'0 0.0
2014-Oct-30 08:25N 40°59' E 028°56'0 0.0
2014-Oct-30 06:19N 40°59' E 028°56'0 0.0
2014-Oct-30 05:31N 40°59' E 028°56'0 0.0
2014-Oct-30 04:25N 40°59' E 028°56'0 0.0
2014-Oct-30 03:31N 40°59' E 028°56'0 0.0
2014-Oct-30 02:25N 40°59' E 028°56'0 0.0
2014-Oct-30 01:25N 40°59' E 028°56'0 0.0
2014-Oct-30 00:19N 40°59' E 028°56'0 0.0
2014-Oct-29 23:31N 40°59' E 028°56'0 0.0
2014-Oct-29 22:31N 40°59' E 028°56'0 0.0
2014-Oct-29 21:31N 40°59' E 028°56'0 0.0
2014-Oct-29 20:25N 40°59' E 028°56'0 0.0
2014-Oct-29 19:25N 40°59' E 028°56'0 0.0
2014-Oct-29 18:19N 40°59' E 028°56'0 0.0
2014-Oct-29 17:07N 40°59' E 028°56'0 0.0
2014-Oct-29 16:07N 40°59' E 028°56'0 0.0
2014-Oct-29 15:31N 40°59' E 028°56'0 0.1
2014-Oct-29 14:31N 40°59' E 028°56'3 2.8
2014-Oct-29 13:31N 40°56' E 028°57'6 5.7
2014-Oct-29 12:28N 40°51' E 028°52'7 7.7
2014-Oct-29 11:31N 40°50' E 028°43'101 5.6
2014-Oct-28 17:21N 40°18' E 026°36'31 2.9
2014-Oct-28 06:31N 40°26' E 025°57'8 8.3
2014-Oct-28 05:33N 40°34' E 025°54'9 8.7
2014-Oct-28 04:33N 40°42' E 025°52'7 7.2
2014-Oct-28 03:33N 40°47' E 025°45'9 8.0
2014-Oct-28 02:29N 40°48' E 025°33'7 7.8
2014-Oct-28 01:33N 40°49' E 025°24'7 7.0
2014-Oct-28 00:33N 40°49' E 025°15'7 6.9
2014-Oct-27 23:33N 40°48' E 025°06'7 7.2
2014-Oct-27 22:33N 40°43' E 024°59'6 6.3
2014-Oct-27 21:33N 40°38' E 024°54'6 5.3
2014-Oct-27 20:21N 40°33' E 024°49'4 5.3
2014-Oct-27 19:33N 40°29' E 024°46'5 5.3
2014-Oct-27 18:33N 40°25' E 024°42'5 5.4
2014-Oct-27 17:33N 40°20' E 024°38'6 5.7
2014-Oct-27 16:30N 40°15' E 024°33'6 5.3
2014-Oct-27 15:23N 40°10' E 024°29'14 4.4
2014-Oct-27 12:10N 40°02' E 024°15'3 4.3
2014-Oct-27 11:33N 40°00' E 024°12'4 4.5
2014-Oct-27 10:33N 39°58' E 024°07'5 4.5
2014-Oct-27 09:32N 39°55' E 024°02'12 5.6
2014-Oct-27 07:28N 39°54' E 023°47'  

Dump ship's entire track history